Time;durP1;ratioP1;P1;durP2;ratioP2;P2;SDS_P1;SDS_P2;PMS_P1;PMS_P2;Temp;Humidity;BMP_temperature;BMP_pressure;BME280_temperature;BME280_humidity;BME280_pressure;Samples;Min_cycle;Max_cycle;Signal;HPM_P1;HPM_P2
2022/01/11 15:11:18;;;;;;;16.12;9.48;;;;;;;-6.26;85.12;100745.41;1778689;79;23088;-57
2022/01/11 15:13:53;;;;;;;20.00;10.32;;;;;;;-6.24;84.65;100749.33;1736691;81;21561;-55
2022/01/11 15:16:26;;;;;;;15.08;8.58;;;;;;;-6.05;83.81;100747.13;1706340;80;22135;-55
2022/01/11 15:18:53;;;;;;;16.80;8.70;;;;;;;-5.92;83.18;100751.50;1736219;81;21604;-54
2022/01/11 15:21:21;;;;;;;14.28;7.85;;;;;;;-5.79;82.67;100752.02;1745180;81;21085;-54
2022/01/11 15:23:49;;;;;;;13.68;7.75;;;;;;;-5.67;82.39;100761.09;1740601;80;20959;-54
2022/01/11 15:26:28;;;;;;;9.90;6.47;;;;;;;-5.52;82.17;100750.58;1732328;81;21570;-56
2022/01/11 15:28:56;;;;;;;10.23;6.70;;;;;;;-5.36;81.50;100755.89;1738107;81;21953;-53
2022/01/11 15:31:23;;;;;;;11.93;6.92;;;;;;;-5.18;81.01;100754.47;1741168;81;21577;-57
2022/01/11 15:33:50;;;;;;;13.85;8.25;;;;;;;-5.05;80.44;100753.64;1740494;80;21923;-54
2022/01/11 15:36:17;;;;;;;13.00;7.47;;;;;;;-4.94;80.39;100754.91;1738886;80;21407;-55
2022/01/11 15:38:43;;;;;;;14.00;7.80;;;;;;;-4.82;80.12;100754.11;1736227;81;21443;-55
2022/01/11 15:41:12;;;;;;;12.30;7.90;;;;;;;-4.74;79.40;100759.09;1740635;81;21799;-55
2022/01/11 15:43:40;;;;;;;12.07;6.95;;;;;;;-4.63;79.18;100759.89;1742679;81;21651;-55
2022/01/11 15:46:06;;;;;;;10.20;6.40;;;;;;;-4.58;79.22;100763.50;1741196;81;21549;-57
2022/01/11 15:48:35;;;;;;;11.57;6.45;;;;;;;-4.55;79.40;100761.06;1737791;80;21018;-57
2022/01/11 15:51:01;;;;;;;11.53;6.83;;;;;;;-4.53;80.65;100768.41;1743496;81;21534;-57
2022/01/11 15:53:28;;;;;;;8.60;6.37;;;;;;;-4.61;81.08;100768.55;1741753;81;22095;-56
2022/01/11 15:55:55;;;;;;;11.53;6.30;;;;;;;-4.67;81.74;100776.90;1738147;81;21498;-54
2022/01/11 15:58:22;;;;;;;11.08;6.17;;;;;;;-4.70;80.54;100772.92;1741677;81;21427;-59
2022/01/11 16:00:49;;;;;;;8.00;5.15;;;;;;;-4.72;78.71;100774.56;1743548;81;21085;-58
2022/01/11 16:03:16;;;;;;;10.03;5.45;;;;;;;-4.74;77.56;100774.91;1739007;81;21502;-58
2022/01/11 16:05:43;;;;;;;;;;;;;;;-4.73;76.71;100785.24;1743442;80;21632;-57
2022/01/11 16:08:10;;;;;;;8.73;5.67;;;;;;;-4.78;74.52;100790.60;1740780;81;20478;-58
2022/01/11 16:10:39;;;;;;;7.53;5.28;;;;;;;-4.90;73.43;100793.59;1690554;83;21072;-60
2022/01/11 16:13:07;;;;;;;10.05;5.00;;;;;;;-4.92;74.29;100786.63;1722015;82;21523;-58
2022/01/11 16:15:34;;;;;;;8.48;5.33;;;;;;;-4.93;74.33;100788.75;1727094;81;21487;-59
2022/01/11 16:18:02;;;;;;;7.80;4.90;;;;;;;-5.02;73.54;100788.39;1730523;82;21841;-58
2022/01/11 16:20:29;;;;;;;6.60;4.35;;;;;;;-5.06;72.28;100790.38;1724613;80;22788;-59
2022/01/11 16:22:56;;;;;;;6.28;4.22;;;;;;;-5.12;72.58;100791.88;1727429;80;21476;-58
2022/01/11 16:25:24;;;;;;;7.30;4.60;;;;;;;-5.18;72.21;100798.45;1729280;80;21662;-58
2022/01/11 16:27:51;;;;;;;7.83;4.65;;;;;;;-5.25;72.05;100792.22;1718914;80;21495;-57
2022/01/11 16:30:28;;;;;;;6.15;4.40;;;;;;;-5.33;71.47;100799.61;1690043;82;21801;-58
2022/01/11 16:32:59;;;;;;;8.05;4.35;;;;;;;-5.42;71.26;100808.21;1726431;81;21092;-57
2022/01/11 16:35:26;;;;;;;6.92;4.97;;;;;;;-5.51;71.60;100807.84;1730217;81;21565;-57
2022/01/11 16:37:52;;;;;;;11.03;5.40;;;;;;;-5.53;71.93;100810.75;1726819;81;21526;-56
2022/01/11 16:43:08;;;;;;;6.75;4.35;;;;;;;-5.60;71.29;100815.14;1718601;82;21787;-58
2022/01/11 16:45:44;;;;;;;8.35;5.05;;;;;;;-5.64;71.11;100812.86;1724217;82;21541;-57
2022/01/11 16:48:12;;;;;;;6.87;4.15;;;;;;;-5.65;70.65;100816.25;1732717;80;21503;-58
2022/01/11 16:50:39;;;;;;;9.63;4.97;;;;;;;-5.75;70.00;100817.94;1730219;81;21506;-59
2022/01/11 16:53:09;;;;;;;7.22;4.55;;;;;;;-5.86;69.43;100822.61;1726910;82;21502;-56
2022/01/11 16:55:35;;;;;;;7.70;5.03;;;;;;;-5.93;69.94;100820.20;1725936;81;21778;-57
2022/01/11 16:58:04;;;;;;;7.70;5.15;;;;;;;-5.96;70.10;100824.35;1725350;82;21572;-57
2022/01/11 17:00:34;;;;;;;9.10;5.92;;;;;;;-6.00;70.30;100827.60;1723930;81;21503;-57
2022/01/11 17:03:01;;;;;;;7.85;5.17;;;;;;;-6.07;70.65;100829.87;1724636;81;21447;-58
2022/01/11 17:05:29;;;;;;;8.58;4.95;;;;;;;-6.22;69.88;100827.94;1723416;82;21566;-56
2022/01/11 17:07:55;;;;;;;;;;;;;;;-6.32;69.93;100830.50;1730408;80;21783;-56
2022/01/11 17:10:22;;;;;;;9.27;5.57;;;;;;;-6.35;69.75;100838.03;1712639;80;20541;-56
2022/01/11 17:12:49;;;;;;;13.65;5.80;;;;;;;-6.36;69.97;100840.13;1656057;85;21640;-58
2022/01/11 17:15:16;;;;;;;12.43;6.03;;;;;;;-6.37;70.38;100838.37;1656609;85;21547;-56
2022/01/11 17:17:43;;;;;;;8.78;5.33;;;;;;;-6.31;70.61;100841.60;1655011;85;21769;-57
2022/01/11 17:20:11;;;;;;;7.35;4.58;;;;;;;-6.27;70.72;100846.95;1665744;85;21811;-58
2022/01/11 17:22:38;;;;;;;15.53;5.03;;;;;;;-6.19;70.91;100850.25;1644054;85;21461;-57
2022/01/11 17:25:06;;;;;;;7.60;5.23;;;;;;;-6.13;71.55;100845.39;1663962;85;21013;-58
2022/01/11 17:27:33;;;;;;;7.05;5.25;;;;;;;-6.15;70.60;100844.04;1654597;85;21583;-55
2022/01/11 17:30:00;;;;;;;8.03;5.28;;;;;;;-6.16;71.27;100847.81;1698874;82;21514;-58
2022/01/11 17:32:30;;;;;;;7.20;4.25;;;;;;;-6.19;71.91;100847.28;1702962;80;21461;-59
2022/01/11 17:34:56;;;;;;;5.10;3.58;;;;;;;-6.23;76.02;100850.52;1708248;82;21020;-58
2022/01/11 17:37:24;;;;;;;8.25;4.40;;;;;;;-6.24;78.61;100854.28;1710531;82;21474;-59
2022/01/11 17:39:52;;;;;;;5.40;3.67;;;;;;;-6.28;78.72;100850.71;1707825;82;21526;-59
2022/01/11 17:42:19;;;;;;;4.80;3.62;;;;;;;-6.30;79.55;100853.20;1705398;82;21113;-59
2022/01/11 17:44:46;;;;;;;5.28;3.42;;;;;;;-6.27;80.14;100852.06;1692257;82;22133;-57
2022/01/11 17:47:13;;;;;;;4.42;3.25;;;;;;;-6.20;79.96;100857.45;1698916;82;21493;-57
2022/01/11 17:49:41;;;;;;;;;;;;;;;-6.16;80.77;100856.77;1694947;82;21545;-57
2022/01/11 17:52:08;;;;;;;5.17;3.47;;;;;;;-6.17;77.59;100856.31;1656058;85;20515;-57
2022/01/11 17:54:34;;;;;;;3.65;2.90;;;;;;;-6.17;76.61;100858.88;1646491;85;21523;-57
2022/01/11 17:57:04;;;;;;;3.83;3.22;;;;;;;-6.19;75.97;100858.80;1655940;84;22145;-57
2022/01/11 17:59:31;;;;;;;5.10;3.15;;;;;;;-6.17;75.47;100861.02;1639898;85;21516;-57
2022/01/11 18:01:59;;;;;;;3.45;2.55;;;;;;;-6.13;74.91;100867.16;1654900;83;21620;-57
2022/01/11 18:04:26;;;;;;;5.78;3.62;;;;;;;-6.17;73.50;100862.30;1639786;85;21567;-60
2022/01/11 18:06:53;;;;;;;4.70;2.85;;;;;;;-6.25;72.76;100868.78;1633852;83;21636;-57
2022/01/11 18:09:21;;;;;;;3.57;3.10;;;;;;;-6.30;74.40;100865.13;1655522;83;21512;-58
2022/01/11 18:11:49;;;;;;;4.12;2.80;;;;;;;-6.29;75.26;100874.54;1678094;82;21561;-57
2022/01/11 18:14:17;;;;;;;4.30;2.80;;;;;;;-6.30;74.44;100872.81;1729687;82;21581;-57
2022/01/11 18:16:44;;;;;;;4.00;2.98;;;;;;;-6.30;74.17;100879.20;1730791;80;21541;-56
2022/01/11 18:19:11;;;;;;;5.87;2.80;;;;;;;-6.30;73.50;100877.52;1730878;82;21467;-56
2022/01/11 18:21:38;;;;;;;4.58;2.90;;;;;;;-6.26;73.61;100878.53;1744505;80;21905;-57
2022/01/11 18:24:06;;;;;;;3.90;2.67;;;;;;;-6.22;73.34;100880.41;1728050;82;21044;-57
2022/01/11 18:26:34;;;;;;;5.67;2.77;;;;;;;-6.24;75.43;100879.47;1724430;81;21006;-56
2022/01/11 18:29:01;;;;;;;7.90;3.13;;;;;;;-6.30;74.31;100883.91;1736172;80;21584;-57
2022/01/11 18:31:30;;;;;;;3.52;3.00;;;;;;;-6.36;72.87;100891.73;1733400;82;21567;-56
2022/01/11 18:33:57;;;;;;;4.05;3.05;;;;;;;-6.41;72.55;100886.80;1734350;81;21771;-56
2022/01/11 18:36:24;;;;;;;3.50;2.77;;;;;;;-6.50;72.04;100894.92;1728616;82;21677;-57
2022/01/11 18:38:51;;;;;;;4.17;2.75;;;;;;;-6.58;71.35;100889.87;1715618;82;21550;-57
2022/01/11 18:41:17;;;;;;;5.70;2.90;;;;;;;-6.72;70.84;100891.80;1736128;80;21511;-56
2022/01/11 18:43:44;;;;;;;3.00;2.60;;;;;;;-6.91;70.03;100893.86;1725840;82;21530;-56
2022/01/11 18:46:11;;;;;;;2.45;2.00;;;;;;;-7.03;70.53;100894.16;1737883;81;22113;-57
2022/01/11 18:48:38;;;;;;;4.75;2.70;;;;;;;-7.08;70.00;100893.95;1734708;82;21518;-56
2022/01/11 18:51:05;;;;;;;;;;;;;;;-7.12;69.66;100896.27;1731877;82;21412;-58
2022/01/11 18:53:33;;;;;;;4.03;2.70;;;;;;;-7.20;69.06;100899.73;1733097;81;20428;-57
2022/01/11 18:56:00;;;;;;;3.87;2.80;;;;;;;-7.29;68.88;100895.45;1727089;82;21593;-57
2022/01/11 18:58:26;;;;;;;3.22;2.77;;;;;;;-7.35;68.76;100901.13;1735502;82;21699;-57
2022/01/11 19:00:54;;;;;;;4.12;3.05;;;;;;;-7.38;68.83;100906.49;1735495;81;21090;-56
2022/01/11 19:03:20;;;;;;;5.75;3.25;;;;;;;-7.42;68.81;100908.42;1728685;81;21518;-57
2022/01/11 19:05:49;;;;;;;3.85;2.67;;;;;;;-7.41;68.84;100908.91;1728221;81;21499;-57
2022/01/11 19:08:15;;;;;;;4.20;2.98;;;;;;;-7.36;69.07;100916.42;1724823;82;21483;-57
2022/01/11 19:10:42;;;;;;;4.63;3.43;;;;;;;-7.35;68.91;100916.88;1731330;81;21790;-57
2022/01/11 19:13:09;;;;;;;5.92;3.35;;;;;;;-7.38;68.39;100918.89;1728010;80;21518;-55
2022/01/11 19:15:36;;;;;;;5.65;3.72;;;;;;;-7.40;68.61;100910.27;1717160;82;21571;-57
2022/01/11 19:18:03;;;;;;;4.67;3.30;;;;;;;-7.46;68.60;100922.34;1720140;82;21606;-57
2022/01/11 19:20:30;;;;;;;5.35;3.70;;;;;;;-7.42;68.86;100919.55;1715026;82;21041;-56
2022/01/11 19:22:56;;;;;;;5.77;3.43;;;;;;;-7.42;68.69;100916.09;1721163;82;21787;-57
2022/01/11 19:25:23;;;;;;;3.30;2.77;;;;;;;-7.45;68.49;100923.21;1730832;81;21615;-56
2022/01/11 19:27:50;;;;;;;5.62;3.30;;;;;;;-7.52;68.54;100922.02;1724046;81;21433;-55
2022/01/11 19:30:16;;;;;;;3.30;2.70;;;;;;;-7.53;68.55;100920.27;1717942;82;21495;-56
2022/01/11 19:32:43;;;;;;;4.87;3.02;;;;;;;-7.54;68.58;100924.89;1728673;82;21041;-57
2022/01/11 19:35:10;;;;;;;5.43;3.23;;;;;;;-7.54;68.32;100924.89;1714870;82;22149;-56
2022/01/11 19:37:37;;;;;;;5.08;2.87;;;;;;;-7.56;68.60;100930.73;1721663;82;21508;-56
2022/01/11 19:40:06;;;;;;;4.92;3.25;;;;;;;-7.52;68.73;100928.80;1721259;82;21446;-57
